createdAt,value
2023-04-20T00:02:18.609Z,1.10
2023-04-20T00:04:45.390Z,1.13
2023-04-20T00:07:12.858Z,1.55
2023-04-20T00:09:39.393Z,1.48
2023-04-20T00:12:06.151Z,1.37
2023-04-20T00:14:32.688Z,1.27
2023-04-20T00:16:59.248Z,1.80
2023-04-20T00:19:28.225Z,1.70
2023-04-20T00:21:54.766Z,1.33
2023-04-20T00:24:21.802Z,1.53
2023-04-20T00:26:48.290Z,1.70
2023-04-20T00:29:14.918Z,1.50
2023-04-20T00:31:42.092Z,1.70
2023-04-20T00:34:08.640Z,1.80
2023-04-20T00:36:35.291Z,1.60
2023-04-20T00:39:02.408Z,1.33
2023-04-20T00:41:28.985Z,1.65
2023-04-20T00:43:56.013Z,1.58
2023-04-20T00:46:23.080Z,2.08
2023-04-20T00:48:54.061Z,1.87
2023-04-20T00:51:23.993Z,1.90
2023-04-20T00:53:50.465Z,1.50
2023-04-20T00:56:17.400Z,1.50
2023-04-20T00:58:43.960Z,1.50
2023-04-20T01:01:11.847Z,1.57
2023-04-20T01:03:42.430Z,1.30
2023-04-20T01:06:09.726Z,1.70
2023-04-20T01:08:36.810Z,1.73
2023-04-20T01:11:03.973Z,1.35
2023-04-20T01:13:30.644Z,2.03
2023-04-20T01:16:00.321Z,1.25
2023-04-20T01:18:27.043Z,1.77
2023-04-20T01:20:53.534Z,1.60
2023-04-20T01:23:20.946Z,1.77
2023-04-20T01:25:47.439Z,1.77
2023-04-20T01:28:14.575Z,1.60
2023-04-20T01:30:41.293Z,1.80
2023-04-20T01:33:07.781Z,2.10
2023-04-20T01:35:34.343Z,2.00
2023-04-20T01:38:01.836Z,1.83
2023-04-20T01:40:28.405Z,2.03
2023-04-20T01:42:54.981Z,2.00
2023-04-20T01:45:22.553Z,1.95
2023-04-20T01:47:49.105Z,1.58
2023-04-20T01:50:15.631Z,1.73
2023-04-20T01:52:42.120Z,1.98
2023-04-20T01:55:11.625Z,2.08
2023-04-20T01:57:38.287Z,1.85
2023-04-20T02:00:05.859Z,1.90
2023-04-20T02:02:40.850Z,2.30
2023-04-20T02:05:08.071Z,2.20
2023-04-20T02:07:34.552Z,1.55
2023-04-20T02:10:01.093Z,1.70
2023-04-20T02:12:27.558Z,1.80
2023-04-20T02:14:54.097Z,2.03
2023-04-20T02:17:21.376Z,1.98
2023-04-20T02:19:48.060Z,2.00
2023-04-20T02:22:14.682Z,1.95
2023-04-20T02:24:41.469Z,2.05
2023-04-20T02:27:07.981Z,1.80
2023-04-20T02:29:34.545Z,2.20
2023-04-20T02:32:01.171Z,2.30
2023-04-20T02:34:27.673Z,2.10
2023-04-20T02:36:56.768Z,2.08
2023-04-20T02:39:23.287Z,1.60
2023-04-20T02:41:49.826Z,2.05
2023-04-20T02:44:16.784Z,1.70
2023-04-20T02:46:43.533Z,2.35
2023-04-20T02:49:10.212Z,2.13
2023-04-20T02:51:41.728Z,1.87
2023-04-20T02:54:08.295Z,2.15
2023-04-20T02:56:35.565Z,1.98
2023-04-20T02:59:06.740Z,2.10
2023-04-20T03:01:47.378Z,2.03
2023-04-20T03:04:18.193Z,2.00
2023-04-20T03:07:16.461Z,1.95
2023-04-20T03:09:43.455Z,2.28
2023-04-20T03:12:18.929Z,2.45
2023-04-20T03:15:06.294Z,1.92
2023-04-20T03:17:50.795Z,1.97
2023-04-20T03:20:17.494Z,2.08
2023-04-20T03:22:44.069Z,2.00
2023-04-20T03:25:11.844Z,2.05
2023-04-20T03:28:07.690Z,2.30
2023-04-20T03:30:35.578Z,2.10
2023-04-20T03:33:13.988Z,2.38
2023-04-20T03:35:40.913Z,2.20
2023-04-20T03:38:07.430Z,2.25
2023-04-20T03:40:34.691Z,1.90
2023-04-20T03:43:02.181Z,2.13
2023-04-20T03:45:28.844Z,1.95
2023-04-20T03:47:55.423Z,2.00
2023-04-20T03:50:22.134Z,1.80
2023-04-20T03:52:49.264Z,1.80
2023-04-20T03:55:16.056Z,1.63
2023-04-20T03:57:48.047Z,1.85
2023-04-20T04:00:14.998Z,2.00
2023-04-20T04:02:47.236Z,2.08
2023-04-20T04:05:19.330Z,1.80
2023-04-20T04:07:48.997Z,1.70
2023-04-20T04:10:17.762Z,1.70
2023-04-20T04:12:45.424Z,1.90
2023-04-20T04:15:12.407Z,2.13
2023-04-20T04:17:48.574Z,2.42
2023-04-20T04:20:15.433Z,1.93
2023-04-20T04:22:43.137Z,2.50
2023-04-20T04:25:40.285Z,2.22
2023-04-20T04:28:08.302Z,2.13
2023-04-20T04:30:37.967Z,1.90
2023-04-20T04:33:07.689Z,2.13
2023-04-20T04:35:36.967Z,2.38
2023-04-20T04:38:04.407Z,2.10
2023-04-20T04:40:33.536Z,2.45
2023-04-20T04:43:02.682Z,2.30
2023-04-20T04:45:29.494Z,2.27
2023-04-20T04:47:57.241Z,1.88
2023-04-20T04:50:23.878Z,2.08
2023-04-20T04:52:51.520Z,2.10
2023-04-20T04:55:18.063Z,2.45
2023-04-20T04:57:44.639Z,1.90
2023-04-20T05:00:12.580Z,2.13
2023-04-20T05:02:39.716Z,2.17
2023-04-20T05:05:09.546Z,2.42
2023-04-20T05:07:38.265Z,2.00
2023-04-20T05:10:05.701Z,2.23
2023-04-20T05:12:32.296Z,2.47
2023-04-20T05:14:59.116Z,1.95
2023-04-20T05:17:25.949Z,2.08
2023-04-20T05:19:52.570Z,1.85
2023-04-20T05:22:19.263Z,2.53
2023-04-20T05:24:45.794Z,2.17
2023-04-20T05:27:12.567Z,1.60
2023-04-20T05:29:39.102Z,2.10
2023-04-20T05:32:05.815Z,2.42
2023-04-20T05:34:32.437Z,1.70
2023-04-20T05:36:59.310Z,2.00
2023-04-20T05:39:26.311Z,1.73
2023-04-20T05:41:52.885Z,1.95
2023-04-20T05:44:19.377Z,1.85
2023-04-20T05:46:45.972Z,1.80
2023-04-20T05:49:12.459Z,2.00
2023-04-20T05:51:38.991Z,2.05
2023-04-20T05:54:05.582Z,1.90
2023-04-20T05:56:32.154Z,2.30
2023-04-20T05:58:59.802Z,2.13
2023-04-20T06:01:26.602Z,2.63
2023-04-20T06:03:53.290Z,2.67
2023-04-20T06:06:19.949Z,1.70
2023-04-20T06:08:46.489Z,2.55
2023-04-20T06:11:13.000Z,2.70
2023-04-20T06:13:39.817Z,2.42
2023-04-20T06:16:09.640Z,1.98
2023-04-20T06:18:37.182Z,2.38
2023-04-20T06:21:04.374Z,2.40
2023-04-20T06:23:31.223Z,2.20
2023-04-20T06:25:57.761Z,1.98
2023-04-20T06:28:24.281Z,2.35
2023-04-20T06:30:51.043Z,3.80
2023-04-20T06:33:17.606Z,2.65
2023-04-20T06:35:44.473Z,2.43
2023-04-20T06:38:11.016Z,2.65
2023-04-20T06:40:37.535Z,2.75
2023-04-20T06:43:04.037Z,2.45
2023-04-20T06:45:32.842Z,2.40
2023-04-20T06:48:00.678Z,2.60
2023-04-20T06:50:27.341Z,2.35
2023-04-20T06:52:54.036Z,2.50
2023-04-20T06:55:21.148Z,2.10
2023-04-20T06:57:47.744Z,2.10
2023-04-20T07:00:14.893Z,1.90
2023-04-20T07:02:50.436Z,2.10
2023-04-20T07:05:18.044Z,2.55
2023-04-20T07:07:45.276Z,2.53
2023-04-20T07:10:13.498Z,2.50
2023-04-20T07:12:43.260Z,2.73
2023-04-20T07:15:10.497Z,2.40
2023-04-20T07:17:37.139Z,2.40
2023-04-20T07:20:10.155Z,3.08
2023-04-20T07:22:37.814Z,2.50
2023-04-20T07:25:06.630Z,2.00
2023-04-20T07:27:38.135Z,2.85
2023-04-20T07:30:06.670Z,1.52
2023-04-20T07:32:33.810Z,2.53
2023-04-20T07:35:00.880Z,3.00
2023-04-20T07:37:27.618Z,3.70
2023-04-20T07:39:54.205Z,3.00
2023-04-20T07:42:21.552Z,2.50
2023-04-20T07:44:48.627Z,2.50
2023-04-20T07:47:15.180Z,2.80
2023-04-20T07:49:42.871Z,2.63
2023-04-20T07:52:16.413Z,3.15
2023-04-20T07:54:44.331Z,3.08
2023-04-20T07:57:11.233Z,2.80
2023-04-20T07:59:37.787Z,3.03
2023-04-20T08:02:04.486Z,3.10
2023-04-20T08:04:31.534Z,2.90
2023-04-20T08:06:58.215Z,3.40
2023-04-20T08:09:26.110Z,3.30
2023-04-20T08:11:52.650Z,3.80
2023-04-20T08:14:21.383Z,3.70
2023-04-20T08:16:47.986Z,3.05
2023-04-20T08:21:46.352Z,3.58
2023-04-20T08:24:13.588Z,3.40
2023-04-20T08:26:40.676Z,10.80
2023-04-20T08:29:07.320Z,11.10
2023-04-20T08:31:33.930Z,3.28
2023-04-20T08:34:00.545Z,3.90
2023-04-20T08:36:28.006Z,3.40
2023-04-20T08:39:09.729Z,3.50
2023-04-20T08:41:36.787Z,2.78
2023-04-20T08:44:03.932Z,2.67
2023-04-20T08:46:30.878Z,3.20
2023-04-20T08:48:59.162Z,3.53
2023-04-20T08:51:25.693Z,3.63
2023-04-20T08:53:53.017Z,3.65
2023-04-20T08:56:19.796Z,3.88
2023-04-20T08:58:46.459Z,3.13
2023-04-20T09:01:15.764Z,3.80
2023-04-20T09:03:46.656Z,3.37
2023-04-20T09:06:18.173Z,3.30
2023-04-20T09:08:46.347Z,3.38
2023-04-20T09:11:22.833Z,2.83
2023-04-20T09:14:00.973Z,3.67
2023-04-20T09:16:27.580Z,3.30
2023-04-20T09:18:56.162Z,3.40
2023-04-20T09:21:24.701Z,5.00
2023-04-20T09:24:02.667Z,7.88
2023-04-20T09:26:36.060Z,3.85
2023-04-20T09:29:03.830Z,3.60
2023-04-20T09:31:30.473Z,3.40
2023-04-20T09:33:57.929Z,3.00
2023-04-20T09:36:26.163Z,2.53
2023-04-20T09:39:03.773Z,2.63
2023-04-20T09:41:32.147Z,3.00
2023-04-20T09:43:59.097Z,2.40
2023-04-20T09:46:29.714Z,2.75
2023-04-20T09:48:56.419Z,2.50
2023-04-20T09:51:23.085Z,2.53
2023-04-20T09:53:50.710Z,2.67
2023-04-20T09:56:20.836Z,2.10
2023-04-20T09:58:47.534Z,2.40
2023-04-20T10:01:14.137Z,2.22
2023-04-20T10:03:44.841Z,2.20
2023-04-20T10:06:27.620Z,2.80
2023-04-20T10:08:55.344Z,2.60
2023-04-20T10:11:26.655Z,2.35
2023-04-20T10:13:55.502Z,2.00
2023-04-20T10:16:22.225Z,2.60
2023-04-20T10:19:00.164Z,2.23
2023-04-20T10:21:27.860Z,2.60
2023-04-20T10:23:54.534Z,2.40
2023-04-20T10:26:21.168Z,2.30
2023-04-20T10:28:47.861Z,2.00
2023-04-20T10:31:15.580Z,2.30
2023-04-20T10:33:55.162Z,2.47
2023-04-20T10:36:34.308Z,2.40
2023-04-20T10:39:05.690Z,2.40
2023-04-20T10:41:32.294Z,2.30
2023-04-20T10:44:09.970Z,1.90
2023-04-20T10:46:36.504Z,2.35
2023-04-20T10:49:03.541Z,2.55
2023-04-20T10:51:30.527Z,5.35
2023-04-20T10:54:07.978Z,7.00
2023-04-20T10:56:52.751Z,2.67
2023-04-20T10:59:23.376Z,2.00
2023-04-20T11:01:51.256Z,2.97
2023-04-20T11:04:19.175Z,2.30
2023-04-20T11:06:47.998Z,2.38
2023-04-20T11:09:23.518Z,2.40
2023-04-20T11:12:05.231Z,2.15
2023-04-20T11:14:33.777Z,2.20
2023-04-20T11:17:00.912Z,2.50
2023-04-20T11:19:29.488Z,2.50
2023-04-20T11:21:56.702Z,2.27
2023-04-20T11:24:28.334Z,2.30
2023-04-20T11:26:56.033Z,2.30
2023-04-20T11:29:29.934Z,2.10
2023-04-20T11:31:58.068Z,2.25
2023-04-20T11:34:24.805Z,2.40
2023-04-20T11:36:51.586Z,2.30
2023-04-20T11:39:25.533Z,2.92
2023-04-20T11:41:52.888Z,2.60
2023-04-20T11:44:23.621Z,2.75
2023-04-20T11:46:50.580Z,2.77
2023-04-20T11:49:17.336Z,2.58
2023-04-20T11:51:44.694Z,2.65
2023-04-20T11:54:11.805Z,2.95
2023-04-20T11:56:38.810Z,2.10
2023-04-20T11:59:05.463Z,2.70
2023-04-20T12:01:33.025Z,3.53
2023-04-20T12:04:01.999Z,2.75
2023-04-20T12:06:29.236Z,2.70
2023-04-20T12:08:56.449Z,3.00
2023-04-20T12:11:23.478Z,2.77
2023-04-20T12:13:50.082Z,3.47
2023-04-20T12:16:16.749Z,2.30
2023-04-20T12:18:43.327Z,2.78
2023-04-20T12:21:10.058Z,3.15
2023-04-20T12:23:39.460Z,2.70
2023-04-20T12:26:06.639Z,3.30
2023-04-20T12:28:33.427Z,2.38
2023-04-20T12:30:59.939Z,2.70
2023-04-20T12:33:26.664Z,2.67
2023-04-20T12:35:53.321Z,2.83
2023-04-20T12:38:19.844Z,2.97
2023-04-20T12:40:46.487Z,2.47
2023-04-20T12:43:13.003Z,3.00
2023-04-20T12:45:39.530Z,2.67
2023-04-20T12:48:06.169Z,2.40
2023-04-20T12:50:32.929Z,5.03
2023-04-20T12:52:59.410Z,2.70
2023-04-20T12:55:26.318Z,2.38
2023-04-20T12:57:52.919Z,2.05
2023-04-20T13:00:19.758Z,2.50
2023-04-20T13:02:46.513Z,2.88
2023-04-20T13:05:13.201Z,3.20
2023-04-20T13:07:39.761Z,3.38
2023-04-20T13:10:06.558Z,3.20
2023-04-20T13:12:33.103Z,3.50
2023-04-20T13:14:59.658Z,3.22
2023-04-20T13:17:26.305Z,3.85
2023-04-20T13:19:52.875Z,3.05
2023-04-20T13:22:19.412Z,3.65
2023-04-20T13:24:46.072Z,3.50
2023-04-20T13:27:12.643Z,3.28
2023-04-20T13:29:39.955Z,3.72
2023-04-20T13:32:06.587Z,3.55
2023-04-20T13:34:33.104Z,3.83
2023-04-20T13:36:59.751Z,3.50
2023-04-20T13:39:27.822Z,3.72
2023-04-20T13:41:54.352Z,2.92
2023-04-20T13:44:21.417Z,3.33
2023-04-20T13:46:48.510Z,2.75
2023-04-20T13:49:16.830Z,3.93
2023-04-20T13:51:43.328Z,2.90
2023-04-20T13:54:09.864Z,3.80
2023-04-20T13:56:36.350Z,3.53
2023-04-20T13:59:03.979Z,3.08
2023-04-20T14:01:31.381Z,3.40
2023-04-20T14:03:58.105Z,3.28
2023-04-20T14:06:24.923Z,3.47
2023-04-20T14:08:51.732Z,3.05
2023-04-20T14:11:18.374Z,3.67
2023-04-20T14:13:44.913Z,3.63
2023-04-20T14:16:12.356Z,3.90
2023-04-20T14:18:39.178Z,3.30
2023-04-20T14:21:06.151Z,3.95
2023-04-20T14:23:32.780Z,3.80
2023-04-20T14:25:59.392Z,3.67
2023-04-20T14:28:25.901Z,3.50
2023-04-20T14:30:52.413Z,3.30
2023-04-20T14:33:19.068Z,3.85
2023-04-20T14:35:46.393Z,3.05
2023-04-20T14:38:12.928Z,3.20
2023-04-20T14:40:39.525Z,3.42
2023-04-20T14:43:06.042Z,3.58
2023-04-20T14:45:32.571Z,3.25
2023-04-20T14:47:59.140Z,3.88
2023-04-20T14:50:31.776Z,3.47
2023-04-20T14:52:58.261Z,3.22
2023-04-20T14:55:25.983Z,3.38
2023-04-20T14:57:55.235Z,3.38
2023-04-20T15:00:23.654Z,3.75
2023-04-20T15:02:51.487Z,3.70
2023-04-20T15:05:18.358Z,3.15
2023-04-20T15:07:45.858Z,3.55
2023-04-20T15:10:12.705Z,3.42
2023-04-20T15:12:39.242Z,3.55
2023-04-20T15:15:06.341Z,3.63
2023-04-20T15:17:32.923Z,3.88
2023-04-20T15:19:59.506Z,3.17
2023-04-20T15:22:26.118Z,3.50
2023-04-20T15:24:52.655Z,3.65
2023-04-20T15:27:19.171Z,3.10
2023-04-20T15:29:45.822Z,3.47
2023-04-20T15:32:12.350Z,3.47
2023-04-20T15:34:39.083Z,4.15
2023-04-20T15:37:05.702Z,3.42
2023-04-20T15:39:32.230Z,3.90
2023-04-20T15:41:59.214Z,3.60
2023-04-20T15:44:25.957Z,2.90
2023-04-20T15:46:52.507Z,3.58
2023-04-20T15:49:21.835Z,3.63
2023-04-20T15:51:48.553Z,3.80
2023-04-20T15:54:15.582Z,3.30
2023-04-20T15:56:42.158Z,4.22
2023-04-20T15:59:08.704Z,3.75
2023-04-20T16:01:35.298Z,3.90
2023-04-20T16:04:02.069Z,4.10
2023-04-20T16:06:28.889Z,3.45
2023-04-20T16:08:57.167Z,3.80
2023-04-20T16:11:23.817Z,3.53
2023-04-20T16:13:50.369Z,3.70
2023-04-20T16:16:16.939Z,3.10
2023-04-20T16:18:43.507Z,3.80
2023-04-20T16:21:10.153Z,3.47
2023-04-20T16:23:36.685Z,3.42
2023-04-20T16:26:03.209Z,3.30
2023-04-20T16:28:29.948Z,3.53
2023-04-20T16:30:56.667Z,3.67
2023-04-20T16:33:23.626Z,3.28
2023-04-20T16:35:50.132Z,3.15
2023-04-20T16:38:17.143Z,3.80
2023-04-20T16:40:43.724Z,3.67
2023-04-20T16:43:10.394Z,3.55
2023-04-20T16:45:38.868Z,3.25
2023-04-20T16:48:05.484Z,3.35
2023-04-20T16:50:32.194Z,3.55
2023-04-20T16:52:58.990Z,3.60
2023-04-20T16:55:26.168Z,4.13
2023-04-20T16:57:59.626Z,3.38
2023-04-20T17:00:30.509Z,3.45
2023-04-20T17:02:57.852Z,3.22
2023-04-20T17:05:24.826Z,3.33
2023-04-20T17:07:51.437Z,3.50
2023-04-20T17:10:18.207Z,3.30
2023-04-20T17:12:44.849Z,4.10
2023-04-20T17:15:11.531Z,3.50
2023-04-20T17:17:38.544Z,3.33
2023-04-20T17:20:07.077Z,3.35
2023-04-20T17:22:35.408Z,3.70
2023-04-20T17:25:02.199Z,3.72
2023-04-20T17:27:28.750Z,3.55
2023-04-20T17:29:56.082Z,3.70
2023-04-20T17:32:22.791Z,3.50
2023-04-20T17:34:51.341Z,3.53
2023-04-20T17:37:18.122Z,3.80
2023-04-20T17:39:44.669Z,3.55
2023-04-20T17:42:12.366Z,3.17
2023-04-20T17:44:39.042Z,3.20
2023-04-20T17:47:08.212Z,3.33
2023-04-20T17:49:37.813Z,3.85
2023-04-20T17:52:20.328Z,3.50
2023-04-20T17:54:49.220Z,3.33
2023-04-20T17:57:19.340Z,3.75
2023-04-20T17:59:48.228Z,4.05
2023-04-20T18:02:19.444Z,4.00
2023-04-20T18:04:48.820Z,4.00
2023-04-20T18:07:24.735Z,3.40
2023-04-20T18:09:51.780Z,3.13
2023-04-20T18:12:18.236Z,3.95
2023-04-20T18:14:45.531Z,4.03
2023-04-20T18:17:12.207Z,3.72
2023-04-20T18:19:38.755Z,4.10
2023-04-20T18:22:05.475Z,3.78
2023-04-20T18:24:32.058Z,4.28
2023-04-20T18:26:59.002Z,4.18
2023-04-20T18:29:26.144Z,4.40
2023-04-20T18:31:54.580Z,4.80
2023-04-20T18:34:21.983Z,4.50
2023-04-20T18:36:48.487Z,5.30
2023-04-20T18:39:15.125Z,4.07
2023-04-20T18:41:41.762Z,4.90
2023-04-20T18:44:08.425Z,5.00
2023-04-20T18:46:35.069Z,4.50
2023-04-20T18:49:01.772Z,5.18
2023-04-20T18:51:28.577Z,5.60
2023-04-20T18:53:55.161Z,4.80
2023-04-20T18:56:21.789Z,5.33
2023-04-20T18:58:48.414Z,4.85
2023-04-20T19:01:14.974Z,4.93
2023-04-20T19:03:44.824Z,6.13
2023-04-20T19:06:13.004Z,5.22
2023-04-20T19:08:39.746Z,5.57
2023-04-20T19:11:06.278Z,6.90
2023-04-20T19:13:32.814Z,4.82
2023-04-20T19:15:59.617Z,6.20
2023-04-20T19:18:27.258Z,6.68
2023-04-20T19:20:54.328Z,5.23
2023-04-20T19:23:21.634Z,4.88
2023-04-20T19:25:48.499Z,6.15
2023-04-20T19:28:15.557Z,5.55
2023-04-20T19:30:42.124Z,6.80
2023-04-20T19:33:08.662Z,6.20
2023-04-20T19:35:35.281Z,5.20
2023-04-20T19:38:02.061Z,7.40
2023-04-20T19:40:28.547Z,6.38
2023-04-20T19:42:55.145Z,6.05
2023-04-20T19:45:21.736Z,5.83
2023-04-20T19:47:48.321Z,6.90
2023-04-20T19:50:15.234Z,6.40
2023-04-20T19:52:41.854Z,5.40
2023-04-20T19:55:08.877Z,5.40
2023-04-20T19:57:35.581Z,6.10
2023-04-20T20:00:02.077Z,7.00
2023-04-20T20:02:39.895Z,5.20
2023-04-20T20:05:07.206Z,6.22
2023-04-20T20:07:35.583Z,6.00
2023-04-20T20:10:02.465Z,6.23
2023-04-20T20:12:28.991Z,6.32
2023-04-20T20:14:55.718Z,5.60
2023-04-20T20:17:22.436Z,5.75
2023-04-20T20:19:49.902Z,6.10
2023-04-20T20:22:16.782Z,4.67
2023-04-20T20:24:44.570Z,5.75
2023-04-20T20:27:11.816Z,5.85
2023-04-20T20:29:38.508Z,7.75
2023-04-20T20:32:05.056Z,5.93
2023-04-20T20:34:31.765Z,6.07
2023-04-20T20:36:58.581Z,6.35
2023-04-20T20:39:25.128Z,6.20
2023-04-20T20:41:51.869Z,5.90
2023-04-20T20:44:18.610Z,6.70
2023-04-20T20:46:45.660Z,5.93
2023-04-20T20:49:12.357Z,6.13
2023-04-20T20:51:38.848Z,6.50
2023-04-20T20:54:05.409Z,5.95
2023-04-20T20:56:31.946Z,5.78
2023-04-20T20:58:58.495Z,6.00
2023-04-20T21:01:25.294Z,5.75
2023-04-20T21:03:52.007Z,7.45
2023-04-20T21:06:18.683Z,6.70
2023-04-20T21:08:45.330Z,6.65
2023-04-20T21:11:11.936Z,7.87
2023-04-20T21:13:38.437Z,6.22
2023-04-20T21:16:05.231Z,5.88
2023-04-20T21:18:32.445Z,6.57
2023-04-20T21:20:58.997Z,6.57
2023-04-20T21:23:25.835Z,7.10
2023-04-20T21:25:52.412Z,5.75
2023-04-20T21:28:18.904Z,6.60
2023-04-20T21:30:45.551Z,5.68
2023-04-20T21:33:12.076Z,6.72
2023-04-20T21:35:38.679Z,7.17
2023-04-20T21:38:05.241Z,6.43
2023-04-20T21:40:32.314Z,6.97
2023-04-20T21:42:58.871Z,6.97
2023-04-20T21:45:25.460Z,6.43
2023-04-20T21:47:52.092Z,6.60
2023-04-20T21:50:18.755Z,6.60
2023-04-20T21:52:45.223Z,6.32
2023-04-20T21:55:11.803Z,5.75
2023-04-20T21:57:38.348Z,8.32
2023-04-20T22:00:05.490Z,6.47
2023-04-20T22:02:41.320Z,6.55
2023-04-20T22:05:09.566Z,6.88
2023-04-20T22:07:36.104Z,6.15
2023-04-20T22:10:03.156Z,6.65
2023-04-20T22:12:39.455Z,7.30
2023-04-20T22:15:09.606Z,6.53
2023-04-20T22:17:37.725Z,5.30
2023-04-20T22:20:09.705Z,6.07
2023-04-20T22:22:36.630Z,6.50
2023-04-20T22:25:04.751Z,6.90
2023-04-20T22:27:32.914Z,7.57
2023-04-20T22:29:59.662Z,6.43
2023-04-20T22:32:26.699Z,7.25
2023-04-20T22:34:53.252Z,7.13
2023-04-20T22:37:19.810Z,6.00
2023-04-20T22:39:46.352Z,7.65
2023-04-20T22:42:12.882Z,7.15
2023-04-20T22:44:39.388Z,7.45
2023-04-20T22:47:06.441Z,8.60
2023-04-20T22:49:33.115Z,9.00
2023-04-20T22:51:59.680Z,8.57
2023-04-20T22:54:26.168Z,8.07
2023-04-20T22:56:53.335Z,9.38
2023-04-20T22:59:20.059Z,9.43
2023-04-20T23:01:46.885Z,7.87
2023-04-20T23:04:13.466Z,7.93
2023-04-20T23:06:43.713Z,9.85
2023-04-20T23:09:13.484Z,10.32
2023-04-20T23:11:40.347Z,10.85
2023-04-20T23:14:08.460Z,9.87
2023-04-20T23:16:35.538Z,10.30
2023-04-20T23:19:02.091Z,10.10
2023-04-20T23:21:28.895Z,10.60
2023-04-20T23:23:58.334Z,9.98
2023-04-20T23:26:25.506Z,10.87
2023-04-20T23:28:53.164Z,10.18
2023-04-20T23:31:21.034Z,9.32
2023-04-20T23:33:48.292Z,10.82
2023-04-20T23:36:14.941Z,10.52
2023-04-20T23:38:41.966Z,9.03
2023-04-20T23:41:13.179Z,12.23
2023-04-20T23:43:40.525Z,10.27
2023-04-20T23:46:07.514Z,9.68
2023-04-20T23:48:34.480Z,11.38
2023-04-20T23:51:01.584Z,10.63
2023-04-20T23:53:28.307Z,12.73
2023-04-20T23:55:57.425Z,13.25
2023-04-20T23:58:27.927Z,13.07
